Terminal Aerodrome Forecast
Issued by NWS

Home | Current Version | Previous Version | Text Only | Print | Product List | Glossary On
Versions: 1 2 3 4 5 6 7 8 9 10 11 12 13 14
000
FTUS45 KRIW 062340 AAC
TAFLND
TAF AMD
KLND 062340Z 0700/0724 27012KT 5SM FU BKN050
     FM070200 29009KT 5SM -RA OVC025
     FM070700 30006KT 3SM -RA OVC008=

USA.gov is the U.S. government's official web portal to all federal, state and local government web resources and services.